Time;durP1;ratioP1;P1;durP2;ratioP2;P2;SDS_P1;SDS_P2;PMS_P1;PMS_P2;Temp;Humidity;BMP_temperature;BMP_pressure;BME280_temperature;BME280_humidity;BME280_pressure;Samples;Min_cycle;Max_cycle;Signal;HPM_P1;HPM_P2
2023/04/06 00:00:23;;;;;;;17.85;9.90;;;;;;;2.30;79.49;101385.41;5020873;28;20045;-71
2023/04/06 00:02:49;;;;;;;17.85;9.40;;;;;;;2.28;79.26;101380.25;5013356;28;20736;-71
2023/04/06 00:05:14;;;;;;;17.90;10.13;;;;;;;2.27;78.49;101362.34;5008218;28;20049;-70
2023/04/06 00:07:40;;;;;;;18.05;10.32;;;;;;;2.26;77.68;101366.56;5010914;28;20025;-71
2023/04/06 00:10:06;;;;;;;14.82;8.85;;;;;;;2.21;78.07;101367.25;5007971;28;20133;-71
2023/04/06 00:12:32;;;;;;;14.07;10.13;;;;;;;2.14;77.72;101370.38;5010214;28;20057;-71
2023/04/06 00:14:57;;;;;;;15.32;9.50;;;;;;;2.08;77.71;101365.06;5008717;28;20795;-71
2023/04/06 00:17:23;;;;;;;19.08;9.30;;;;;;;2.03;77.59;101359.81;5016495;28;20041;-72
2023/04/06 00:19:48;;;;;;;17.65;10.35;;;;;;;2.01;77.37;101350.38;5012161;28;20048;-71
2023/04/06 00:22:14;;;;;;;13.13;8.85;;;;;;;1.97;77.23;101362.16;5018762;28;20068;-71
2023/04/06 00:24:39;;;;;;;16.58;9.90;;;;;;;1.93;77.36;101355.19;5015351;28;20077;-71
2023/04/06 00:27:04;;;;;;;14.50;8.95;;;;;;;1.94;77.24;101346.75;5015408;28;20037;-71
2023/04/06 00:29:30;;;;;;;16.05;9.82;;;;;;;1.94;77.30;101345.88;5010227;28;20045;-71
2023/04/06 00:31:55;;;;;;;14.40;9.07;;;;;;;1.91;77.34;101341.53;5014990;28;20037;-71
2023/04/06 00:34:21;;;;;;;14.70;8.35;;;;;;;1.88;77.44;101345.66;5009719;28;20036;-71
2023/04/06 00:36:46;;;;;;;13.20;7.93;;;;;;;1.82;77.43;101342.09;5013382;28;20037;-70
2023/04/06 00:39:12;;;;;;;14.93;7.72;;;;;;;1.79;77.41;101349.63;5014660;28;20676;-70
2023/04/06 00:41:42;;;;;;;17.05;8.95;;;;;;;1.78;77.31;101344.44;5014657;28;20555;-70
2023/04/06 00:44:07;;;;;;;15.82;8.07;;;;;;;1.75;77.66;101344.34;5010745;28;20073;-71
2023/04/06 00:46:33;;;;;;;14.88;9.18;;;;;;;1.74;77.73;101347.72;5013784;28;20120;-70
2023/04/06 00:48:58;;;;;;;15.15;9.32;;;;;;;1.71;77.74;101338.28;5014807;28;20128;-71
2023/04/06 00:51:25;;;;;;;16.38;8.10;;;;;;;1.70;77.96;101340.75;5013620;28;20428;-71
2023/04/06 00:53:50;;;;;;;14.55;8.00;;;;;;;1.67;78.19;101338.97;5019407;28;20096;-71
2023/04/06 00:56:15;;;;;;;14.77;8.30;;;;;;;1.67;78.45;101341.53;5019961;28;20037;-71
2023/04/06 00:58:41;;;;;;;13.55;8.45;;;;;;;1.66;78.41;101342.34;5016472;28;20029;-71
2023/04/06 01:01:06;;;;;;;11.43;7.85;;;;;;;1.67;78.92;101338.09;5020559;28;20029;-71
2023/04/06 01:03:32;;;;;;;17.10;10.55;;;;;;;1.66;78.86;101334.69;5024194;28;20041;-71
2023/04/06 01:05:58;;;;;;;14.98;8.68;;;;;;;1.64;79.43;101332.91;5020836;28;20549;-70
2023/04/06 01:08:24;;;;;;;16.85;8.68;;;;;;;1.62;79.11;101322.66;5011461;28;20034;-70
2023/04/06 01:10:50;;;;;;;13.95;9.27;;;;;;;1.60;79.06;101316.63;5016960;28;20029;-70
2023/04/06 01:13:15;;;;;;;13.70;8.05;;;;;;;1.60;78.88;101314.09;5022366;28;20067;-70
2023/04/06 01:15:42;;;;;;;14.07;8.75;;;;;;;1.57;78.68;101311.41;5015273;28;20037;-70
2023/04/06 01:18:10;;;;;;;16.50;9.18;;;;;;;1.60;78.83;101308.09;5021817;28;20049;-70
2023/04/06 01:20:36;;;;;;;16.73;9.25;;;;;;;1.58;79.20;101309.75;5016708;28;20105;-70
2023/04/06 01:23:01;;;;;;;17.08;8.75;;;;;;;1.53;78.95;101306.19;5018713;28;20041;-70
2023/04/06 01:25:27;;;;;;;15.50;9.45;;;;;;;1.51;79.31;101310.34;5017219;28;21291;-70
2023/04/06 01:27:52;;;;;;;16.02;9.63;;;;;;;1.50;79.30;101306.06;5020600;28;20083;-70
2023/04/06 01:30:18;;;;;;;17.67;8.88;;;;;;;1.48;79.37;101300.91;5013642;28;20037;-70
2023/04/06 01:32:44;;;;;;;18.50;9.15;;;;;;;1.43;79.40;101299.00;5016847;28;20128;-70
2023/04/06 01:35:10;;;;;;;15.43;8.80;;;;;;;1.37;79.79;101299.66;5019468;28;20044;-70
2023/04/06 01:37:35;;;;;;;15.15;8.82;;;;;;;1.31;80.09;101296.88;5004094;28;20041;-70
2023/04/06 01:40:01;;;;;;;15.70;8.80;;;;;;;1.27;79.71;101298.44;5013237;28;20030;-70
2023/04/06 01:42:26;;;;;;;15.95;9.30;;;;;;;1.24;79.96;101289.84;5014754;28;20042;-70
2023/04/06 01:44:52;;;;;;;12.73;8.18;;;;;;;1.23;79.70;101295.72;5001470;28;20034;-70
2023/04/06 01:47:17;;;;;;;18.95;9.55;;;;;;;1.19;79.36;101289.66;5017813;28;20473;-70
2023/04/06 01:49:42;;;;;;;15.95;8.65;;;;;;;1.16;79.25;101289.53;5013987;28;20041;-70
2023/04/06 01:52:08;;;;;;;11.95;7.25;;;;;;;1.15;79.02;101289.50;5017111;28;20081;-70
2023/04/06 01:54:33;;;;;;;13.27;8.15;;;;;;;1.13;79.26;101284.31;5014982;28;21164;-70
2023/04/06 01:56:59;;;;;;;11.68;7.88;;;;;;;1.11;79.10;101282.53;5019071;28;20816;-70
2023/04/06 01:59:24;;;;;;;11.90;7.47;;;;;;;1.11;79.09;101282.53;5015008;28;20061;-70
2023/04/06 02:01:50;;;;;;;14.52;8.35;;;;;;;1.15;78.84;101275.06;5019174;28;20037;-70
2023/04/06 02:04:15;;;;;;;16.23;9.45;;;;;;;1.18;78.97;101277.72;5019214;28;20037;-70
2023/04/06 02:06:41;;;;;;;15.98;9.15;;;;;;;1.19;78.75;101276.91;5025119;28;20052;-72
2023/04/06 02:09:06;;;;;;;14.07;7.78;;;;;;;1.12;79.12;101284.28;5015440;28;20041;-73
2023/04/06 02:11:33;;;;;;;14.10;8.40;;;;;;;1.07;79.18;101281.53;5015383;28;20738;-71
2023/04/06 02:14:00;;;;;;;13.95;8.93;;;;;;;1.03;78.90;101277.16;5016031;28;20038;-70
2023/04/06 02:16:25;;;;;;;14.55;8.23;;;;;;;1.01;79.04;101273.69;5020599;28;20184;-71
2023/04/06 02:18:51;;;;;;;13.52;8.00;;;;;;;1.00;78.99;101276.19;5016263;28;20566;-71
2023/04/06 02:21:19;;;;;;;15.57;9.40;;;;;;;0.99;79.40;101279.53;5014610;28;20048;-71
2023/04/06 02:23:45;;;;;;;13.57;9.15;;;;;;;0.99;79.61;101271.88;5018338;28;20098;-70
2023/04/06 02:26:11;;;;;;;14.43;9.02;;;;;;;0.98;79.52;101277.78;5017574;28;20038;-70
2023/04/06 02:28:36;;;;;;;15.13;8.18;;;;;;;0.93;79.40;101282.72;5020204;28;20034;-71
2023/04/06 02:31:01;;;;;;;14.13;8.18;;;;;;;0.87;79.56;101279.06;5017871;28;20083;-70
2023/04/06 02:33:27;;;;;;;15.60;8.15;;;;;;;0.84;79.61;101276.38;5010999;28;20125;-70
2023/04/06 02:35:52;;;;;;;14.68;8.82;;;;;;;0.80;80.00;101285.56;5018569;28;20033;-70
2023/04/06 02:38:18;;;;;;;13.52;8.57;;;;;;;0.88;80.37;101281.66;5016992;28;20388;-70
2023/04/06 02:40:43;;;;;;;16.55;8.82;;;;;;;0.96;80.05;101277.75;5019547;28;20090;-70
2023/04/06 02:43:08;;;;;;;18.25;10.35;;;;;;;0.95;79.92;101273.44;5018190;28;20037;-70
2023/04/06 02:45:34;;;;;;;12.85;8.85;;;;;;;0.91;79.83;101273.28;5013891;28;20060;-70
2023/04/06 02:47:59;;;;;;;14.07;8.23;;;;;;;0.85;79.89;101271.38;5014595;28;20556;-70
2023/04/06 02:50:25;;;;;;;15.45;8.98;;;;;;;0.83;79.90;101278.06;5027717;28;20607;-70
2023/04/06 02:52:52;;;;;;;15.48;8.98;;;;;;;0.84;79.64;101272.19;5023314;28;20061;-70
2023/04/06 02:55:19;;;;;;;17.10;8.77;;;;;;;0.84;79.63;101266.22;5019688;28;20025;-70
2023/04/06 02:57:44;;;;;;;12.52;8.05;;;;;;;0.83;79.96;101270.44;5022134;28;20053;-70
2023/04/06 03:00:11;;;;;;;13.05;7.85;;;;;;;0.79;79.52;101271.13;5018001;28;20195;-70
2023/04/06 03:02:36;;;;;;;12.73;7.65;;;;;;;0.73;80.11;101266.69;5011368;28;20038;-70
2023/04/06 03:05:03;;;;;;;13.02;7.85;;;;;;;0.69;79.79;101261.41;5010956;28;20103;-70
2023/04/06 03:07:28;;;;;;;16.88;9.05;;;;;;;0.79;79.85;101271.13;5016334;28;20037;-70
2023/04/06 03:09:54;;;;;;;15.05;9.02;;;;;;;0.75;79.93;101256.56;5015582;28;20236;-70
2023/04/06 03:12:20;;;;;;;15.70;8.57;;;;;;;0.71;80.14;101265.72;5025771;28;20785;-70
2023/04/06 03:14:45;;;;;;;13.32;7.75;;;;;;;0.68;80.16;101267.28;5017820;28;20961;-70
2023/04/06 03:17:10;;;;;;;16.50;9.05;;;;;;;0.63;80.12;101269.66;5014259;28;20065;-70
2023/04/06 03:19:36;;;;;;;14.95;8.80;;;;;;;0.62;80.27;101262.84;5015225;28;20765;-70
2023/04/06 03:22:01;;;;;;;12.45;8.32;;;;;;;0.59;80.63;101265.25;5018479;28;20393;-70
2023/04/06 03:24:27;;;;;;;12.75;8.70;;;;;;;0.59;80.71;101261.84;5013142;28;20046;-70
2023/04/06 03:26:52;;;;;;;12.88;8.13;;;;;;;0.56;80.67;101270.22;5019888;28;20069;-70
2023/04/06 03:29:18;;;;;;;14.50;8.85;;;;;;;0.57;80.50;101274.50;5014589;28;20041;-70
2023/04/06 03:31:43;;;;;;;17.60;9.32;;;;;;;0.61;80.61;101265.34;5014843;28;20029;-70
2023/04/06 03:34:09;;;;;;;14.18;8.90;;;;;;;0.59;80.80;101269.47;5013073;28;20061;-70
2023/04/06 03:36:35;;;;;;;13.85;8.63;;;;;;;0.56;80.85;101267.69;5011720;28;20049;-70
2023/04/06 03:39:00;;;;;;;12.70;8.07;;;;;;;0.53;80.76;101267.56;5018007;28;20029;-70
2023/04/06 03:41:26;;;;;;;12.73;7.97;;;;;;;0.51;81.12;101268.31;5012376;28;20044;-70
2023/04/06 03:43:51;;;;;;;12.60;8.50;;;;;;;0.48;81.10;101266.50;5020115;28;20414;-70
2023/04/06 03:46:16;;;;;;;12.88;7.95;;;;;;;0.44;80.82;101268.88;5017062;28;20041;-70
2023/04/06 03:48:42;;;;;;;16.58;9.07;;;;;;;0.41;81.05;101273.84;5015465;28;20044;-70
2023/04/06 03:51:07;;;;;;;21.52;9.40;;;;;;;0.41;81.09;101273.84;5020678;28;20033;-71
2023/04/06 03:53:33;;;;;;;16.38;8.43;;;;;;;0.40;81.21;101267.88;5020776;28;20025;-70
2023/04/06 03:55:58;;;;;;;13.90;8.38;;;;;;;0.37;81.20;101266.91;5015865;28;20036;-70
2023/04/06 03:58:24;;;;;;;14.15;8.90;;;;;;;0.33;81.15;101268.44;5016508;28;20038;-70
2023/04/06 04:00:49;;;;;;;20.80;9.00;;;;;;;0.32;81.82;101270.94;5019750;28;20099;-70
2023/04/06 04:03:14;;;;;;;18.30;8.88;;;;;;;0.28;81.66;101269.94;5007521;28;20036;-70
2023/04/06 04:05:40;;;;;;;13.20;8.25;;;;;;;0.27;81.58;101283.44;5019217;28;20218;-71
2023/04/06 04:08:05;;;;;;;13.40;8.10;;;;;;;0.25;81.66;101274.91;5014337;28;20553;-70
2023/04/06 04:10:31;;;;;;;17.13;8.38;;;;;;;0.24;81.44;101270.59;5017930;28;20091;-70
2023/04/06 04:12:56;;;;;;;20.83;10.73;;;;;;;0.32;82.21;101276.03;5015028;28;20051;-70
2023/04/06 04:15:22;;;;;;;15.05;9.65;;;;;;;0.32;81.99;101265.84;5023534;28;20037;-70
2023/04/06 04:17:49;;;;;;;16.15;9.88;;;;;;;0.25;82.12;101267.28;5011914;28;20568;-70
2023/04/06 04:20:16;;;;;;;16.13;9.45;;;;;;;0.21;82.42;101269.59;5011169;28;20040;-70
2023/04/06 04:22:41;;;;;;;18.55;10.13;;;;;;;0.25;82.52;101266.41;5016296;28;20069;-70
2023/04/06 04:25:07;;;;;;;18.77;10.35;;;;;;;0.20;82.42;101268.75;5013125;28;20025;-70
2023/04/06 04:27:32;;;;;;;15.00;9.50;;;;;;;0.15;82.94;101272.78;5020242;28;20120;-70
2023/04/06 04:29:58;;;;;;;17.90;9.88;;;;;;;0.13;82.96;101274.38;5016526;28;20053;-70
2023/04/06 04:32:27;;;;;;;16.88;9.07;;;;;;;0.09;82.98;101270.84;5015442;28;20049;-71
2023/04/06 04:34:52;;;;;;;19.50;10.43;;;;;;;0.08;82.96;101270.81;5017700;28;20140;-71
2023/04/06 04:37:18;;;;;;;19.20;9.95;;;;;;;0.06;83.24;101275.81;5014236;28;20086;-70
2023/04/06 04:39:43;;;;;;;15.05;9.85;;;;;;;0.06;83.07;101269.84;5008007;28;20041;-70
2023/04/06 04:42:08;;;;;;;17.08;9.50;;;;;;;0.06;83.31;101273.25;5011184;28;20154;-70
2023/04/06 04:44:34;;;;;;;17.15;9.80;;;;;;;0.06;83.15;101277.47;5013400;28;20584;-71
2023/04/06 04:46:59;;;;;;;16.42;10.95;;;;;;;0.16;83.83;101275.38;5015345;28;20456;-71
2023/04/06 04:49:25;;;;;;;24.23;11.40;;;;;;;0.15;83.73;101270.22;5013210;28;20025;-71
2023/04/06 04:51:52;;;;;;;16.08;10.30;;;;;;;0.14;83.70;101282.06;5013681;28;21542;-70
2023/04/06 04:54:18;;;;;;;15.57;9.55;;;;;;;0.12;83.25;101281.13;5014301;28;20033;-71
2023/04/06 04:56:44;;;;;;;17.40;9.75;;;;;;;0.11;83.49;101274.31;5021512;28;20448;-71
2023/04/06 04:59:10;;;;;;;19.90;10.68;;;;;;;0.13;83.57;101276.94;5019051;28;20624;-71
2023/04/06 05:01:35;;;;;;;24.70;12.13;;;;;;;0.24;84.01;101272.28;5013170;28;20033;-71
2023/04/06 05:04:01;;;;;;;28.13;10.27;;;;;;;0.24;82.86;101275.69;5013593;28;20029;-71
2023/04/06 05:06:26;;;;;;;23.75;12.07;;;;;;;0.23;83.04;101275.66;5016066;28;20045;-71
2023/04/06 05:08:51;;;;;;;21.42;10.23;;;;;;;0.23;82.94;101280.72;5007882;28;20046;-70
2023/04/06 05:11:17;;;;;;;21.25;11.55;;;;;;;0.25;83.04;101279.97;5012999;28;20045;-71
2023/04/06 05:13:42;;;;;;;19.63;11.75;;;;;;;0.26;82.57;101276.66;5011649;28;20032;-71
2023/04/06 05:16:08;;;;;;;19.55;10.32;;;;;;;0.37;83.13;101282.16;5009107;28;20040;-71
2023/04/06 05:18:33;;;;;;;22.23;10.77;;;;;;;0.44;82.51;101279.91;5019760;28;20042;-71
2023/04/06 05:20:59;;;;;;;25.00;10.50;;;;;;;0.47;82.78;101274.09;5013090;28;20042;-71
2023/04/06 05:23:24;;;;;;;25.55;11.00;;;;;;;0.48;82.47;101270.72;5011743;28;20038;-71
2023/04/06 05:25:50;;;;;;;15.73;9.05;;;;;;;0.51;82.37;101278.47;5013733;28;20824;-71
2023/04/06 05:28:16;;;;;;;17.95;10.27;;;;;;;0.54;81.95;101276.06;5010759;28;20037;-70
2023/04/06 05:30:42;;;;;;;19.40;11.00;;;;;;;0.61;82.69;101276.38;5013568;28;20037;-71
2023/04/06 05:33:09;;;;;;;17.30;9.57;;;;;;;0.68;81.90;101275.78;5015360;28;20068;-70
2023/04/06 05:35:35;;;;;;;17.13;9.45;;;;;;;0.76;82.32;101270.16;5027570;28;20050;-71
2023/04/06 05:38:00;;;;;;;17.80;9.25;;;;;;;0.79;81.75;101266.06;5021250;28;20037;-70
2023/04/06 05:40:26;;;;;;;18.92;10.43;;;;;;;0.85;81.72;101270.50;5024632;28;20510;-71
2023/04/06 05:42:51;;;;;;;18.30;8.80;;;;;;;0.91;81.57;101263.09;5017541;28;20572;-71
2023/04/06 05:45:18;;;;;;;17.85;10.30;;;;;;;0.98;81.45;101272.69;5021211;28;20109;-71
2023/04/06 05:47:44;;;;;;;15.77;9.90;;;;;;;1.05;81.11;101267.03;5019200;28;20037;-71
2023/04/06 05:50:11;;;;;;;14.00;8.35;;;;;;;1.12;80.69;101272.41;5027629;28;20061;-69
2023/04/06 05:52:36;;;;;;;25.33;11.07;;;;;;;1.30;80.56;101267.97;5024626;28;20033;-70
2023/04/06 05:55:03;;;;;;;18.33;9.70;;;;;;;1.43;80.36;101266.75;5030882;28;20021;-70
2023/04/06 05:57:28;;;;;;;16.42;9.80;;;;;;;1.50;80.43;101263.63;5024203;28;20033;-71
2023/04/06 05:59:55;;;;;;;23.90;11.68;;;;;;;1.58;80.04;101267.31;5023790;28;20041;-71
2023/04/06 06:02:21;;;;;;;17.15;9.35;;;;;;;1.66;79.73;101258.25;5022017;28;20033;-71
2023/04/06 06:04:47;;;;;;;11.35;8.32;;;;;;;1.74;79.64;101263.63;5023529;28;20025;-71
2023/04/06 06:07:14;;;;;;;14.13;8.30;;;;;;;1.83;79.16;101257.16;5020507;28;20030;-71
2023/04/06 06:09:40;;;;;;;15.57;9.90;;;;;;;1.97;78.73;101259.31;5005284;28;20045;-70
2023/04/06 06:12:05;;;;;;;14.88;8.32;;;;;;;2.06;78.49;101244.31;5015989;28;20030;-70
2023/04/06 06:14:31;;;;;;;17.33;8.75;;;;;;;2.15;78.13;101245.50;5016587;28;20048;-71
2023/04/06 06:16:56;;;;;;;18.98;10.32;;;;;;;2.28;78.11;101245.06;5016369;28;20418;-70
2023/04/06 06:19:22;;;;;;;18.33;10.70;;;;;;;2.48;78.00;101238.06;5021515;28;20064;-71
2023/04/06 06:21:47;;;;;;;20.00;9.93;;;;;;;2.63;77.64;101236.00;5020515;28;20028;-70
2023/04/06 06:24:12;;;;;;;16.42;9.85;;;;;;;2.70;77.12;101235.34;5027065;28;20041;-71
2023/04/06 06:26:39;;;;;;;18.33;9.57;;;;;;;2.77;77.16;101229.63;5022220;28;20042;-70
2023/04/06 06:29:05;;;;;;;19.05;10.77;;;;;;;2.86;77.16;101229.91;5016838;28;20033;-69
2023/04/06 06:31:31;;;;;;;15.07;8.85;;;;;;;2.97;76.50;101218.31;5026799;28;20095;-72
2023/04/06 06:33:56;;;;;;;17.10;9.60;;;;;;;3.14;75.62;101220.50;5021654;28;20034;-71
2023/04/06 06:36:22;;;;;;;17.67;10.23;;;;;;;3.39;74.85;101193.13;5014297;28;20030;-72
2023/04/06 06:38:47;;;;;;;18.85;9.55;;;;;;;3.56;74.59;101187.59;5008560;28;20090;-72
2023/04/06 06:41:13;;;;;;;16.63;9.25;;;;;;;3.76;73.83;101184.75;5022095;28;20065;-72
2023/04/06 06:43:38;;;;;;;18.33;8.82;;;;;;;3.98;71.83;101153.75;5018141;28;20503;-73
2023/04/06 06:46:05;;;;;;;13.98;8.45;;;;;;;4.13;70.69;101154.94;5020620;28;20034;-73
2023/04/06 06:48:30;;;;;;;17.38;8.35;;;;;;;4.29;70.59;101134.88;5019252;28;20553;-70
2023/04/06 06:50:56;;;;;;;16.13;8.60;;;;;;;4.43;69.42;101130.91;5021095;28;20047;-70
2023/04/06 06:53:22;;;;;;;14.55;8.70;;;;;;;4.59;68.33;101121.88;5021856;28;20037;-71
2023/04/06 06:55:51;;;;;;;16.75;8.73;;;;;;;4.75;67.31;101112.81;5022181;28;20099;-70
2023/04/06 06:58:19;;;;;;;13.77;8.13;;;;;;;4.87;66.50;101096.00;5016944;28;20055;-71
2023/04/06 07:00:45;;;;;;;15.55;9.23;;;;;;;5.02;66.40;101091.19;5029482;28;20036;-72
2023/04/06 07:03:10;;;;;;;11.32;7.43;;;;;;;5.15;65.35;101097.41;5015941;28;20087;-70
2023/04/06 07:05:36;;;;;;;13.93;8.40;;;;;;;5.26;64.77;101088.19;5010381;28;20073;-70
2023/04/06 07:08:01;;;;;;;15.20;7.72;;;;;;;5.36;64.10;101086.69;5015563;28;20156;-70
2023/04/06 07:10:27;;;;;;;12.45;8.07;;;;;;;5.46;63.70;101068.03;5015511;28;20029;-70
2023/04/06 07:12:52;;;;;;;13.32;8.63;;;;;;;5.55;64.39;101083.56;5017298;28;20392;-72
2023/04/06 07:15:18;;;;;;;14.48;7.90;;;;;;;5.63;64.12;101088.03;5017862;28;20061;-71
2023/04/06 07:17:45;;;;;;;17.90;7.80;;;;;;;5.71;64.66;101093.25;5014696;28;20847;-71
2023/04/06 07:20:11;;;;;;;16.50;8.13;;;;;;;5.78;63.78;101092.53;5018923;28;20041;-71
2023/04/06 07:22:38;;;;;;;16.25;8.00;;;;;;;5.92;64.51;101095.31;5019417;28;20033;-71
2023/04/06 07:25:04;;;;;;;17.17;8.95;;;;;;;6.06;62.71;101061.31;5021429;28;20070;-70
2023/04/06 07:27:29;;;;;;;11.93;8.20;;;;;;;6.23;61.54;101048.72;5020691;28;20140;-72
2023/04/06 07:29:55;;;;;;;14.70;9.00;;;;;;;6.33;62.10;101065.97;5019262;28;20069;-71
2023/04/06 07:32:20;;;;;;;16.67;8.95;;;;;;;6.47;60.81;101051.59;5010080;28;20038;-71
2023/04/06 07:34:46;;;;;;;16.50;7.72;;;;;;;6.63;60.79;101050.97;5020104;28;20458;-72
2023/04/06 07:37:12;;;;;;;18.75;9.05;;;;;;;6.77;60.33;101046.84;5025264;28;20039;-72
2023/04/06 07:39:37;;;;;;;17.45;8.20;;;;;;;6.95;58.71;101023.06;5017187;28;20418;-71
2023/04/06 07:42:02;;;;;;;12.38;8.00;;;;;;;7.14;59.78;101032.69;5022846;28;20037;-71
2023/04/06 07:44:28;;;;;;;12.65;7.75;;;;;;;7.32;58.84;101024.31;5012287;28;20041;-71
2023/04/06 07:46:53;;;;;;;15.40;8.30;;;;;;;7.51;58.49;101018.44;5017825;28;20042;-71
2023/04/06 07:49:20;;;;;;;13.60;8.13;;;;;;;7.71;57.29;101005.75;5018455;28;20494;-70
2023/04/06 07:51:46;;;;;;;15.95;8.48;;;;;;;7.83;56.41;100995.56;5013626;28;20062;-70
2023/04/06 07:54:11;;;;;;;12.65;7.50;;;;;;;8.06;55.44;100985.38;5026245;28;20423;-71
2023/04/06 07:56:37;;;;;;;14.13;8.18;;;;;;;8.24;55.31;100985.47;5024294;28;20049;-71
2023/04/06 07:59:02;;;;;;;14.23;8.85;;;;;;;8.41;56.24;101014.72;5018381;28;20029;-71
2023/04/06 08:01:28;;;;;;;12.75;8.43;;;;;;;8.44;54.64;100984.69;5021488;28;20029;-70
2023/04/06 08:03:55;;;;;;;14.55;8.55;;;;;;;8.48;55.03;100990.72;5014884;28;20052;-70
2023/04/06 08:06:21;;;;;;;12.40;7.65;;;;;;;8.56;54.59;100987.31;5016246;28;20091;-70
2023/04/06 08:08:46;;;;;;;12.85;8.35;;;;;;;8.60;54.14;100984.75;5014436;28;20045;-71
2023/04/06 08:11:11;;;;;;;14.77;8.23;;;;;;;8.68;54.62;100980.47;5015364;28;20088;-70
2023/04/06 08:13:37;;;;;;;14.13;8.32;;;;;;;8.83;54.96;100993.41;5015149;28;20030;-70
2023/04/06 08:16:03;;;;;;;17.85;8.48;;;;;;;8.93;55.07;101010.63;5013743;28;20590;-69
2023/04/06 08:18:29;;;;;;;12.05;7.95;;;;;;;9.07;55.33;100999.47;5011075;28;20033;-71
2023/04/06 08:20:55;;;;;;;13.90;7.90;;;;;;;9.09;54.66;101002.03;5030323;28;20056;-71
2023/04/06 08:23:21;;;;;;;23.63;9.40;;;;;;;9.16;53.92;100990.03;5015868;28;20140;-70
2023/04/06 08:25:46;;;;;;;12.13;8.13;;;;;;;9.33;53.71;100984.00;5025238;28;20116;-69
2023/04/06 08:28:12;;;;;;;16.27;8.77;;;;;;;9.49;53.99;100988.31;5028724;28;20156;-70
2023/04/06 08:30:41;;;;;;;12.27;8.40;;;;;;;9.61;53.79;100982.31;5025574;28;20090;-69
2023/04/06 08:33:06;;;;;;;14.15;8.38;;;;;;;9.59;53.47;100978.84;5015376;28;20180;-69
2023/04/06 08:35:32;;;;;;;16.13;8.73;;;;;;;9.63;53.01;100971.13;5029972;28;20037;-70
2023/04/06 08:37:57;;;;;;;14.18;7.90;;;;;;;9.68;52.79;100969.38;5016422;28;20109;-71
2023/04/06 08:40:23;;;;;;;13.35;8.35;;;;;;;9.84;52.48;100969.38;5017413;28;20104;-71
2023/04/06 08:42:56;;;;;;;15.15;8.93;;;;;;;9.90;52.84;100967.63;5016376;28;20052;-72
2023/04/06 08:45:22;;;;;;;15.35;8.90;;;;;;;10.01;51.84;100944.34;5015878;28;20516;-71
2023/04/06 08:47:52;;;;;;;17.27;9.07;;;;;;;10.13;52.64;100965.84;5013186;28;20572;-71
2023/04/06 08:50:18;;;;;;;20.75;8.80;;;;;;;10.26;52.15;100970.97;5009361;28;20037;-71
2023/04/06 08:52:47;;;;;;;15.25;9.18;;;;;;;10.35;52.33;100964.03;5021408;28;20033;-71
2023/04/06 08:55:12;;;;;;;15.55;8.70;;;;;;;10.50;52.11;100963.09;5011622;28;20024;-70
2023/04/06 08:57:38;;;;;;;17.55;8.95;;;;;;;10.66;50.85;100942.31;5019202;28;20042;-71
2023/04/06 09:00:06;;;;;;;16.92;8.93;;;;;;;10.92;51.14;100939.56;5028652;28;20033;-71
2023/04/06 09:02:32;;;;;;;13.77;8.27;;;;;;;11.20;50.49;100948.84;5016861;28;20038;-70
2023/04/06 09:04:58;;;;;;;18.23;9.07;;;;;;;11.33;49.30;100928.91;5023100;28;20067;-70
2023/04/06 09:07:23;;;;;;;17.98;9.00;;;;;;;11.51;48.69;100926.19;5013332;28;20034;-69
2023/04/06 09:09:51;;;;;;;15.65;9.20;;;;;;;11.57;50.01;100946.84;5014663;28;20128;-70
2023/04/06 09:12:30;;;;;;;16.20;8.82;;;;;;;11.82;48.43;100925.00;5017389;28;20059;-70
2023/04/06 09:14:56;;;;;;;14.10;9.38;;;;;;;11.99;48.59;100936.91;5016838;28;20034;-71
2023/04/06 09:17:24;;;;;;;15.40;9.30;;;;;;;12.16;47.72;100927.19;5020634;28;20034;-71
2023/04/06 09:19:50;;;;;;;16.75;9.15;;;;;;;12.24;48.23;100927.94;5018762;28;20212;-71
2023/04/06 09:22:15;;;;;;;12.23;8.50;;;;;;;12.29;48.42;100945.16;5016348;28;20037;-72
2023/04/06 09:24:59;;;;;;;17.08;9.05;;;;;;;12.46;46.90;100921.63;5021968;28;20037;-71
2023/04/06 09:27:32;;;;;;;13.85;8.23;;;;;;;12.73;47.29;100922.97;5013003;28;20041;-72
2023/04/06 09:30:05;;;;;;;17.95;9.00;;;;;;;12.87;45.59;100908.06;5022538;28;20040;-71
2023/04/06 09:32:31;;;;;;;14.07;8.00;;;;;;;13.30;45.92;100914.28;5019901;28;20029;-71
2023/04/06 09:35:07;;;;;;;16.80;8.93;;;;;;;13.60;45.33;100917.22;5021490;28;20037;-71
2023/04/06 09:37:33;;;;;;;15.57;9.68;;;;;;;13.80;43.65;100897.75;5014063;28;20029;-71
2023/04/06 09:40:06;;;;;;;21.35;9.73;;;;;;;13.84;42.99;100890.78;5012445;28;20467;-70
2023/04/06 09:42:32;;;;;;;18.60;9.63;;;;;;;13.97;43.74;100915.66;5019403;28;20119;-71
2023/04/06 09:44:58;;;;;;;17.83;9.30;;;;;;;14.17;43.28;100902.22;5027567;28;20037;-71
2023/04/06 09:47:25;;;;;;;18.80;9.60;;;;;;;14.35;42.43;100902.72;5019622;28;20885;-71
2023/04/06 09:49:57;;;;;;;17.08;9.57;;;;;;;14.28;42.28;100895.91;5022214;28;20030;-70
2023/04/06 09:52:46;;;;;;;18.05;8.95;;;;;;;14.43;42.56;100902.56;5022647;28;20087;-69
2023/04/06 09:55:17;;;;;;;15.93;10.35;;;;;;;14.57;42.06;100897.94;5024078;28;20056;-70
2023/04/06 09:57:49;;;;;;;15.48;9.50;;;;;;;14.64;40.92;100886.47;5020488;28;20041;-69
2023/04/06 10:00:19;;;;;;;15.93;9.32;;;;;;;14.69;41.52;100896.78;5020007;28;20076;-70
2023/04/06 10:03:13;;;;;;;24.05;9.85;;;;;;;14.71;40.91;100900.22;5021990;28;20052;-71
2023/04/06 10:05:50;;;;;;;19.55;9.38;;;;;;;14.65;39.43;100880.41;5009714;28;20060;-71
2023/04/06 10:08:16;;;;;;;17.75;9.82;;;;;;;14.56;39.18;100881.47;5021264;28;20534;-70
2023/04/06 10:10:42;;;;;;;19.17;10.27;;;;;;;14.76;39.59;100899.22;5022357;28;20071;-71
2023/04/06 10:13:11;;;;;;;17.55;9.52;;;;;;;14.88;40.02;100898.06;5016518;28;20091;-70
2023/04/06 10:15:38;;;;;;;20.15;9.77;;;;;;;14.95;40.48;100905.69;5018803;28;20041;-70
2023/04/06 10:18:04;;;;;;;17.30;10.45;;;;;;;14.94;37.85;100883.16;5016183;28;20036;-73
2023/04/06 10:20:42;;;;;;;17.30;9.38;;;;;;;14.88;37.71;100885.03;5019110;28;20049;-71
2023/04/06 10:23:56;;;;;;;17.30;10.35;;;;;;;14.85;37.79;100883.38;5021131;28;20046;-70
2023/04/06 10:26:22;;;;;;;18.02;9.82;;;;;;;14.92;37.90;100903.16;5008348;28;20083;-71
2023/04/06 10:28:49;;;;;;;21.00;10.13;;;;;;;15.03;37.09;100898.56;5011631;28;20037;-71
2023/04/06 10:31:15;;;;;;;19.40;10.15;;;;;;;15.01;38.59;100910.75;5019160;28;20548;-71
2023/04/06 10:33:41;;;;;;;20.58;10.73;;;;;;;15.13;38.25;100909.59;5015813;28;20045;-71
2023/04/06 10:36:14;;;;;;;18.27;10.25;;;;;;;15.28;38.85;100918.78;5017826;28;20041;-71
2023/04/06 10:38:40;;;;;;;18.45;11.20;;;;;;;15.18;38.73;100918.16;5014139;28;20054;-71
2023/04/06 10:41:11;;;;;;;24.50;11.82;;;;;;;15.25;38.25;100905.84;4998871;28;20140;-70
2023/04/06 10:43:39;;;;;;;21.55;11.10;;;;;;;15.17;38.23;100898.19;5010275;28;20034;-71
2023/04/06 10:46:06;;;;;;;20.67;11.20;;;;;;;15.29;38.54;100923.94;5000104;28;20903;-70
2023/04/06 10:48:40;;;;;;;23.27;11.20;;;;;;;15.44;37.29;100910.53;4992892;28;20056;-69
2023/04/06 10:51:13;;;;;;;19.08;11.55;;;;;;;15.45;36.86;100903.56;5001066;28;20084;-70
2023/04/06 10:53:44;;;;;;;22.30;10.73;;;;;;;15.49;36.38;100890.44;4994968;28;20072;-71
2023/04/06 10:56:14;;;;;;;25.15;10.43;;;;;;;15.51;36.81;100899.06;5000628;28;20038;-69
2023/04/06 10:58:47;;;;;;;19.83;11.57;;;;;;;15.54;37.79;100904.19;4996731;28;20050;-70
2023/04/06 11:01:14;;;;;;;18.75;10.57;;;;;;;15.56;36.84;100891.09;4995991;28;20026;-71
2023/04/06 11:03:47;;;;;;;17.42;10.55;;;;;;;15.61;36.01;100884.88;4994100;28;20046;-70
2023/04/06 11:06:28;;;;;;;22.10;12.57;;;;;;;15.47;35.25;100873.13;4991974;28;20483;-70
2023/04/06 11:08:55;;;;;;;21.63;11.32;;;;;;;15.61;35.80;100897.06;4995444;28;20041;-70
2023/04/06 11:11:23;;;;;;;20.20;10.93;;;;;;;15.70;37.71;100908.13;4994252;28;20038;-70
2023/04/06 11:13:52;;;;;;;23.27;11.35;;;;;;;15.84;36.39;100893.88;5001660;28;20036;-70
2023/04/06 11:16:19;;;;;;;22.20;11.30;;;;;;;15.76;36.36;100900.13;4999602;28;20522;-71
2023/04/06 11:19:01;;;;;;;20.55;10.90;;;;;;;15.84;35.96;100897.31;4993775;28;20148;-71